createdAt,value
2023-12-14T00:04:40.598Z,10.00
2023-12-14T00:10:06.351Z,9.90
2023-12-14T00:15:33.956Z,10.40
2023-12-14T00:20:59.643Z,10.40
2023-12-14T00:26:25.592Z,10.40
2023-12-14T00:31:51.554Z,10.50
2023-12-14T00:37:17.247Z,10.10
2023-12-14T00:42:42.942Z,9.70
2023-12-14T00:48:08.702Z,8.40
2023-12-14T00:53:34.472Z,9.80
2023-12-14T00:59:00.256Z,10.60
2023-12-14T01:04:16.320Z,9.50
2023-12-14T01:09:42.078Z,9.50
2023-12-14T01:15:07.749Z,9.00
2023-12-14T01:20:35.652Z,6.80
2023-12-14T01:26:01.456Z,7.20
2023-12-14T01:31:27.022Z,7.20
2023-12-14T01:36:52.746Z,6.40
2023-12-14T01:42:18.607Z,8.20
2023-12-14T01:47:44.317Z,7.20
2023-12-14T01:53:10.093Z,7.70
2023-12-14T01:58:35.937Z,7.80
2023-12-14T02:04:02.750Z,8.00
2023-12-14T02:09:28.995Z,6.70
2023-12-14T02:14:54.776Z,7.90
2023-12-14T02:20:20.471Z,8.50
2023-12-14T02:25:46.430Z,8.10
2023-12-14T02:31:12.214Z,7.90
2023-12-14T02:36:37.922Z,8.50
2023-12-14T02:42:03.612Z,9.10
2023-12-14T02:47:29.319Z,8.60
2023-12-14T02:52:55.005Z,9.00
2023-12-14T02:58:20.924Z,10.10
2023-12-14T03:03:46.667Z,8.60
2023-12-14T03:09:12.374Z,8.80
2023-12-14T03:14:38.049Z,8.90
2023-12-14T03:20:04.021Z,7.70
2023-12-14T03:25:32.136Z,7.40
2023-12-14T03:30:57.921Z,7.30
2023-12-14T03:36:23.831Z,7.60
2023-12-14T03:41:49.634Z,6.90
2023-12-14T03:47:15.399Z,7.90
2023-12-14T03:52:35.567Z,7.70
2023-12-14T03:58:01.615Z,6.40
2023-12-14T04:03:27.356Z,6.80
2023-12-14T04:08:53.189Z,7.70
2023-12-14T04:14:19.927Z,8.40
2023-12-14T04:19:45.674Z,7.40
2023-12-14T04:25:04.283Z,7.80
2023-12-14T04:30:31.829Z,8.90
2023-12-14T04:35:47.684Z,7.80
2023-12-14T04:41:13.575Z,7.80
2023-12-14T04:46:39.378Z,8.20
2023-12-14T04:52:05.715Z,7.90
2023-12-14T04:57:24.852Z,8.20
2023-12-14T05:02:53.366Z,8.00
2023-12-14T05:08:19.141Z,8.60
2023-12-14T05:13:44.857Z,7.30
2023-12-14T05:19:10.756Z,8.50
2023-12-14T05:24:36.486Z,8.20
2023-12-14T05:30:02.137Z,8.50
2023-12-14T05:35:29.191Z,7.50
2023-12-14T05:40:55.032Z,7.60
2023-12-14T05:46:20.979Z,6.10
2023-12-14T05:51:54.308Z,7.00
2023-12-14T05:57:19.996Z,7.50
2023-12-14T06:02:39.028Z,7.20
2023-12-14T06:08:05.044Z,7.70
2023-12-14T06:13:30.801Z,7.50
2023-12-14T06:18:56.606Z,6.90
2023-12-14T06:24:22.353Z,7.90
2023-12-14T06:29:40.605Z,7.50
2023-12-14T06:35:06.369Z,6.50
2023-12-14T06:40:33.568Z,6.90
2023-12-14T06:46:00.666Z,7.20
2023-12-14T06:51:26.879Z,7.50
2023-12-14T06:56:52.557Z,7.80
2023-12-14T07:02:18.322Z,8.00
2023-12-14T07:07:44.119Z,10.30
2023-12-14T07:13:09.871Z,9.30
2023-12-14T07:18:35.660Z,9.40
2023-12-14T07:24:00.555Z,10.10
2023-12-14T07:29:26.278Z,10.80
2023-12-14T07:34:51.968Z,9.30
2023-12-14T07:40:17.674Z,10.40
2023-12-14T07:45:43.798Z,10.10
2023-12-14T07:51:09.521Z,10.80
2023-12-14T07:56:35.334Z,10.40
2023-12-14T08:02:01.129Z,11.00
2023-12-14T08:07:27.068Z,12.20
2023-12-14T08:12:52.820Z,12.00
2023-12-14T08:18:18.658Z,11.70
2023-12-14T08:23:44.427Z,12.10
2023-12-14T08:29:10.171Z,12.30
2023-12-14T08:34:35.937Z,11.70
2023-12-14T08:40:01.668Z,11.70
2023-12-14T08:45:31.650Z,11.50
2023-12-14T08:50:57.314Z,11.70
2023-12-14T08:56:23.055Z,12.10
2023-12-14T09:01:48.975Z,11.40
2023-12-14T09:07:14.946Z,11.90
2023-12-14T09:12:40.664Z,11.40
2023-12-14T09:18:06.527Z,11.60
2023-12-14T09:23:32.390Z,11.00
2023-12-14T09:28:58.171Z,11.90
2023-12-14T09:34:23.889Z,12.10
2023-12-14T09:39:49.609Z,12.40
2023-12-14T09:45:15.502Z,13.00
2023-12-14T09:50:41.760Z,13.30
2023-12-14T09:56:07.522Z,11.80
2023-12-14T10:01:46.873Z,12.00
2023-12-14T10:07:14.088Z,13.00
2023-12-14T10:12:40.592Z,13.20
2023-12-14T10:18:06.340Z,12.20
2023-12-14T10:23:32.214Z,12.10
2023-12-14T10:28:57.956Z,11.40
2023-12-14T10:34:23.658Z,11.10
2023-12-14T10:39:50.523Z,10.60
2023-12-14T10:45:17.171Z,11.60
2023-12-14T10:50:47.469Z,10.80
2023-12-14T10:56:14.573Z,11.20
2023-12-14T11:01:42.076Z,10.30
2023-12-14T11:07:09.087Z,9.40
2023-12-14T11:12:34.891Z,10.20
2023-12-14T11:17:59.099Z,10.50
2023-12-14T11:23:31.388Z,9.10
2023-12-14T11:34:23.077Z,9.80
2023-12-14T11:39:53.026Z,9.10
2023-12-14T11:45:18.919Z,10.10
2023-12-14T11:50:44.770Z,9.00
2023-12-14T11:56:10.664Z,10.00
2023-12-14T12:01:38.743Z,9.10
2023-12-14T12:07:04.519Z,10.20
2023-12-14T12:12:32.014Z,10.50
2023-12-14T12:17:57.907Z,8.40
2023-12-14T12:23:25.010Z,9.00
2023-12-14T12:28:52.836Z,9.30
2023-12-14T12:34:18.580Z,10.60
2023-12-14T12:39:44.484Z,9.40
2023-12-14T12:45:10.325Z,10.20
2023-12-14T12:50:36.450Z,9.20
2023-12-14T12:56:02.420Z,8.90
2023-12-14T13:01:28.875Z,9.20
2023-12-14T13:06:54.887Z,10.60
2023-12-14T13:12:11.885Z,11.30
2023-12-14T13:17:38.228Z,9.10
2023-12-14T13:23:08.000Z,10.00
2023-12-14T13:28:34.370Z,9.80
2023-12-14T13:34:00.290Z,8.70
2023-12-14T13:39:26.236Z,10.20
2023-12-14T13:44:46.113Z,10.20
2023-12-14T13:50:04.917Z,9.80
2023-12-14T13:55:31.062Z,10.20
2023-12-14T14:00:57.517Z,9.50
2023-12-14T14:06:23.632Z,10.60
2023-12-14T14:11:48.536Z,9.00
2023-12-14T14:17:14.461Z,10.10
2023-12-14T14:22:40.569Z,9.60
2023-12-14T14:28:06.507Z,10.30
2023-12-14T14:33:30.945Z,10.60
2023-12-14T14:38:56.932Z,10.80
2023-12-14T14:44:12.980Z,9.50
2023-12-14T14:49:39.223Z,10.60
2023-12-14T14:55:05.021Z,10.40
2023-12-14T15:00:32.349Z,8.90
2023-12-14T15:05:58.231Z,9.10
2023-12-14T15:11:14.254Z,9.10
2023-12-14T15:16:40.363Z,9.70
2023-12-14T15:21:59.852Z,8.20
2023-12-14T15:27:19.636Z,9.40
2023-12-14T15:32:35.938Z,9.60
2023-12-14T15:38:02.275Z,8.90
2023-12-14T15:43:28.078Z,8.70
2023-12-14T15:48:43.743Z,9.80
2023-12-14T15:54:09.544Z,9.40
2023-12-14T15:59:35.395Z,9.80
2023-12-14T16:05:01.517Z,9.60
2023-12-14T16:10:29.625Z,8.30
2023-12-14T16:15:55.322Z,8.30
2023-12-14T16:21:21.118Z,9.50
2023-12-14T16:26:40.152Z,10.30
2023-12-14T16:32:06.309Z,10.00
2023-12-14T16:37:32.299Z,10.20
2023-12-14T16:42:48.010Z,9.50
2023-12-14T16:48:13.738Z,9.30
2023-12-14T16:53:39.761Z,8.50
2023-12-14T16:59:05.770Z,9.70
2023-12-14T17:04:31.510Z,11.00
2023-12-14T17:09:57.260Z,8.80
2023-12-14T17:15:14.112Z,9.10
2023-12-14T17:20:22.743Z,9.10
2023-12-14T17:25:48.447Z,9.20
2023-12-14T17:31:14.779Z,8.70
2023-12-14T17:36:40.467Z,8.70
2023-12-14T17:42:18.814Z,8.40
2023-12-14T17:47:45.857Z,8.60
2023-12-14T17:53:01.529Z,9.30
2023-12-14T17:58:20.561Z,8.90
2023-12-14T18:03:36.238Z,9.40
2023-12-14T18:08:45.310Z,8.90
2023-12-14T18:14:11.092Z,8.80
2023-12-14T18:19:36.941Z,8.90
2023-12-14T18:25:03.171Z,8.80
2023-12-14T18:30:30.459Z,9.20
2023-12-14T18:35:56.097Z,8.40
2023-12-14T18:41:21.833Z,9.80
2023-12-14T18:46:47.505Z,9.00
2023-12-14T18:52:01.772Z,9.50
2023-12-14T18:57:27.880Z,9.30
2023-12-14T19:02:53.578Z,10.10
2023-12-14T19:08:19.344Z,9.40
2023-12-14T19:13:46.507Z,9.50
2023-12-14T19:19:12.348Z,9.00
2023-12-14T19:24:42.583Z,9.50
2023-12-14T19:30:13.116Z,10.10
2023-12-14T19:35:39.646Z,10.00
2023-12-14T19:41:06.356Z,9.70
2023-12-14T19:46:36.845Z,12.20
2023-12-14T19:52:27.022Z,29.90
2023-12-14T19:57:54.435Z,37.30
2023-12-14T20:03:15.763Z,17.70
2023-12-14T20:08:42.571Z,10.90
2023-12-14T20:14:09.359Z,9.10
2023-12-14T20:19:36.325Z,9.50
2023-12-14T20:25:04.869Z,9.30
2023-12-14T20:30:31.647Z,10.30
2023-12-14T20:36:00.198Z,9.20
2023-12-14T20:41:27.575Z,8.60
2023-12-14T20:46:54.259Z,8.90
2023-12-14T20:52:20.801Z,9.30
2023-12-14T20:57:47.311Z,7.90
2023-12-14T21:03:17.018Z,9.00
2023-12-14T21:08:42.885Z,9.00
2023-12-14T21:14:10.079Z,8.90
2023-12-14T21:19:35.864Z,8.50
2023-12-14T21:25:02.764Z,8.50
2023-12-14T21:30:32.142Z,8.70
2023-12-14T21:35:58.233Z,8.20
2023-12-14T21:41:25.832Z,8.80
2023-12-14T21:46:52.892Z,8.20
2023-12-14T21:52:19.300Z,8.70
2023-12-14T21:57:46.218Z,8.70
2023-12-14T22:03:12.767Z,9.20
2023-12-14T22:08:38.476Z,9.30
2023-12-14T22:13:56.944Z,9.40
2023-12-14T22:19:24.477Z,10.90
2023-12-14T22:24:51.631Z,9.60
2023-12-14T22:30:16.209Z,9.10
2023-12-14T22:35:41.888Z,11.00
2023-12-14T22:41:08.075Z,10.10
2023-12-14T22:46:32.349Z,9.20
2023-12-14T22:51:58.193Z,10.00
2023-12-14T22:57:24.014Z,10.60
2023-12-14T23:02:49.772Z,11.50
2023-12-14T23:08:15.661Z,13.00
2023-12-14T23:13:41.413Z,10.30
2023-12-14T23:19:07.157Z,10.20
2023-12-14T23:24:32.969Z,9.80
2023-12-14T23:29:58.680Z,10.30
2023-12-14T23:35:24.576Z,10.60
2023-12-14T23:40:50.401Z,9.20
2023-12-14T23:46:16.141Z,9.60
2023-12-14T23:51:41.805Z,10.00
2023-12-14T23:57:07.537Z,9.00
